Time;durP1;ratioP1;P1;durP2;ratioP2;P2;SDS_P1;SDS_P2;PMS_P1;PMS_P2;Temp;Humidity;BMP_temperature;BMP_pressure;BME280_temperature;BME280_humidity;BME280_pressure;Samples;Min_cycle;Max_cycle;Signal;HPM_P1;HPM_P2
2023/12/02 00:01:07;;;;;;;11.53;9.07;;;;;;;1.02;100.00;100877.41;6153380;28;20321;-73
2023/12/02 00:04:28;;;;;;;12.87;10.23;;;;;;;1.01;100.00;100871.25;6153146;28;20239;-75
2023/12/02 00:07:49;;;;;;;12.50;10.13;;;;;;;1.05;100.00;100875.47;6154190;28;20230;-73
2023/12/02 00:11:11;;;;;;;10.37;8.87;;;;;;;1.16;100.00;100875.81;6155692;28;20234;-74
2023/12/02 00:14:34;;;;;;;9.63;8.73;;;;;;;1.12;100.00;100870.72;6154084;28;20234;-73
2023/12/02 00:17:55;;;;;;;12.57;8.87;;;;;;;1.09;100.00;100873.50;6152456;28;20247;-74
2023/12/02 00:21:15;;;;;;;10.73;8.93;;;;;;;1.05;100.00;100867.50;6155705;28;20239;-73
2023/12/02 00:24:36;;;;;;;11.50;8.47;;;;;;;1.04;100.00;100865.81;6152457;28;20262;-73
2023/12/02 00:27:57;;;;;;;9.87;8.87;;;;;;;1.01;100.00;100855.31;6136545;28;20272;-74
2023/12/02 00:31:20;;;;;;;11.83;9.07;;;;;;;0.96;100.00;100864.47;6158511;28;20234;-74
2023/12/02 00:34:40;;;;;;;10.30;9.33;;;;;;;0.96;100.00;100857.34;6158292;28;20305;-73
2023/12/02 00:38:01;;;;;;;11.50;9.10;;;;;;;1.00;100.00;100860.72;6153174;28;20329;-74
2023/12/02 00:41:22;;;;;;;11.27;8.47;;;;;;;0.98;100.00;100862.59;6160438;28;20250;-74
2023/12/02 00:44:43;;;;;;;10.40;7.33;;;;;;;0.88;100.00;100856.03;6160916;28;20546;-73
2023/12/02 00:48:06;;;;;;;9.27;7.43;;;;;;;0.89;100.00;100850.63;6160383;28;20227;-72
2023/12/02 00:51:27;;;;;;;9.17;8.33;;;;;;;0.97;100.00;100851.09;6160339;28;20231;-74
2023/12/02 00:54:48;;;;;;;8.70;7.50;;;;;;;0.95;100.00;100852.13;6160438;28;20242;-73
2023/12/02 00:58:09;;;;;;;11.17;7.67;;;;;;;0.96;100.00;100853.84;6160257;28;20266;-73
2023/12/02 01:01:30;;;;;;;10.07;8.73;;;;;;;0.80;100.00;100854.59;6139248;28;20235;-74
2023/12/02 01:04:52;;;;;;;9.73;8.73;;;;;;;0.91;100.00;100848.75;6161301;28;20238;-73
2023/12/02 01:08:13;;;;;;;7.73;6.93;;;;;;;0.87;100.00;100851.63;6158471;28;20663;-73
2023/12/02 01:11:34;;;;;;;8.03;7.13;;;;;;;0.91;100.00;100856.72;6158752;28;20554;-74
2023/12/02 01:14:55;;;;;;;8.97;7.70;;;;;;;0.95;100.00;100862.72;6158478;28;20238;-74
2023/12/02 01:18:16;;;;;;;8.87;6.70;;;;;;;0.95;100.00;100863.59;6158099;28;20340;-74
2023/12/02 01:21:39;;;;;;;8.07;7.27;;;;;;;0.95;100.00;100855.63;6134957;28;20260;-73
2023/12/02 01:25:00;;;;;;;9.10;6.30;;;;;;;0.93;100.00;100854.84;6156873;28;20230;-74
2023/12/02 01:28:21;;;;;;;8.07;7.27;;;;;;;0.87;100.00;100860.47;6155497;28;20230;-73
2023/12/02 01:31:42;;;;;;;8.53;6.67;;;;;;;0.88;100.00;100850.72;6158666;28;20239;-74
2023/12/02 01:35:03;;;;;;;9.60;6.43;;;;;;;0.82;100.00;100858.03;6153606;28;20226;-74
2023/12/02 01:38:25;;;;;;;9.47;7.87;;;;;;;0.82;100.00;100865.13;6155551;28;20234;-73
2023/12/02 01:41:46;;;;;;;7.93;6.80;;;;;;;0.82;100.00;100865.13;6155883;28;20229;-73
2023/12/02 01:45:08;;;;;;;7.40;6.23;;;;;;;0.75;100.00;100858.41;6158879;28;20226;-74
2023/12/02 01:48:33;;;;;;;7.93;6.30;;;;;;;0.83;100.00;100856.25;6157565;28;20235;-73
2023/12/02 01:51:54;;;;;;;8.33;7.20;;;;;;;0.81;100.00;100852.81;6155185;28;20246;-73
2023/12/02 01:55:16;;;;;;;8.77;7.13;;;;;;;0.89;100.00;100858.59;6156694;28;20227;-74
2023/12/02 01:58:40;;;;;;;7.30;6.60;;;;;;;0.81;100.00;100855.47;6143852;28;20274;-73
2023/12/02 02:02:01;;;;;;;8.13;6.30;;;;;;;0.83;100.00;100854.44;6158134;28;20326;-76
2023/12/02 02:05:22;;;;;;;8.77;7.23;;;;;;;0.86;100.00;100858.72;6157139;28;20235;-75
2023/12/02 02:08:44;;;;;;;10.50;7.73;;;;;;;0.78;100.00;100860.91;6148373;28;20238;-76
2023/12/02 02:12:07;;;;;;;8.70;7.77;;;;;;;0.81;100.00;100858.94;6153501;28;20917;-74
2023/12/02 02:15:28;;;;;;;8.67;6.43;;;;;;;0.85;100.00;100859.69;6128421;28;20230;-77
2023/12/02 02:18:49;;;;;;;7.23;6.33;;;;;;;0.87;100.00;100863.13;6152646;28;20502;-74
2023/12/02 02:22:13;;;;;;;9.23;8.27;;;;;;;0.89;100.00;100858.59;6153349;28;20226;-74
2023/12/02 02:25:34;;;;;;;8.97;8.20;;;;;;;0.90;100.00;100855.00;6151035;28;20698;-73
2023/12/02 02:28:55;;;;;;;8.40;7.60;;;;;;;0.80;100.00;100856.38;6153847;28;20238;-74
2023/12/02 02:32:16;;;;;;;8.53;5.83;;;;;;;0.88;100.00;100864.81;6145565;28;20231;-73
2023/12/02 02:35:37;;;;;;;8.63;6.37;;;;;;;0.90;100.00;100870.91;6152366;28;20269;-74
2023/12/02 02:38:59;;;;;;;6.50;5.93;;;;;;;0.88;100.00;100866.63;6151128;28;21654;-74
2023/12/02 02:42:20;;;;;;;7.10;6.23;;;;;;;0.90;100.00;100862.94;6149809;28;20685;-74
2023/12/02 02:45:41;;;;;;;7.43;6.20;;;;;;;0.94;100.00;100861.88;6151914;28;20226;-74
2023/12/02 02:49:05;;;;;;;9.03;7.93;;;;;;;0.90;100.00;100857.66;6153174;28;20242;-74
2023/12/02 02:52:26;;;;;;;10.03;6.80;;;;;;;0.92;100.00;100861.06;6155999;28;20242;-73
2023/12/02 02:55:48;;;;;;;8.27;6.33;;;;;;;0.89;100.00;100855.94;6155846;28;20817;-74
2023/12/02 02:59:09;;;;;;;6.80;6.03;;;;;;;0.83;100.00;100861.56;6154603;28;20226;-73
2023/12/02 03:02:30;;;;;;;11.13;8.53;;;;;;;0.74;100.00;100865.50;6151531;28;20238;-74
2023/12/02 03:05:51;;;;;;;10.80;7.10;;;;;;;0.68;100.00;100863.16;6149977;28;20504;-74
2023/12/02 03:09:13;;;;;;;7.10;6.40;;;;;;;0.72;100.00;100874.47;6151513;28;20337;-74
2023/12/02 03:12:35;;;;;;;10.13;7.10;;;;;;;0.53;100.00;100866.53;6151462;28;20243;-73
2023/12/02 03:15:57;;;;;;;10.70;7.57;;;;;;;0.61;100.00;100860.88;6152158;28;20241;-74
2023/12/02 03:19:19;;;;;;;10.60;6.50;;;;;;;0.77;100.00;100859.22;6151237;28;20517;-73
2023/12/02 03:22:40;;;;;;;8.70;7.33;;;;;;;0.77;100.00;100856.56;6152879;28;20242;-74
2023/12/02 03:26:02;;;;;;;8.07;7.27;;;;;;;0.78;100.00;100867.09;6137440;28;20242;-73
2023/12/02 03:29:26;;;;;;;6.80;6.10;;;;;;;0.75;100.00;100866.38;6152431;28;20678;-74
2023/12/02 03:32:47;;;;;;;10.63;7.67;;;;;;;0.69;100.00;100874.59;6155510;28;20246;-74
2023/12/02 03:36:10;;;;;;;7.27;5.83;;;;;;;0.64;100.00;100869.56;6156440;28;21106;-74
2023/12/02 03:39:31;;;;;;;9.40;6.73;;;;;;;0.65;100.00;100868.59;6155214;28;20508;-73
2023/12/02 03:42:52;;;;;;;44.47;8.20;;;;;;;0.72;100.00;100863.88;6154989;28;20363;-74
2023/12/02 03:46:14;;;;;;;9.00;8.03;;;;;;;0.72;100.00;100864.72;6154161;28;20357;-74
2023/12/02 03:49:35;;;;;;;8.60;7.30;;;;;;;0.61;100.00;100859.06;6131467;28;20242;-74
2023/12/02 03:52:55;;;;;;;11.47;8.00;;;;;;;0.72;100.00;100863.88;6145726;28;20234;-73
2023/12/02 03:56:16;;;;;;;10.00;7.00;;;;;;;0.72;100.00;100867.38;6156215;28;20668;-73
2023/12/02 03:59:40;;;;;;;10.23;7.43;;;;;;;0.82;100.00;100862.47;6145948;28;20231;-72
2023/12/02 04:03:02;;;;;;;7.97;6.77;;;;;;;0.77;100.00;100865.34;6155481;28;20330;-74
2023/12/02 04:06:25;;;;;;;10.00;6.50;;;;;;;0.82;100.00;100875.75;6159822;28;20238;-73
2023/12/02 04:09:46;;;;;;;7.83;7.13;;;;;;;0.94;100.00;100876.94;6160969;28;20239;-73
2023/12/02 04:13:07;;;;;;;8.43;7.63;;;;;;;0.80;100.00;100870.53;6160481;28;20594;-75
2023/12/02 04:16:28;;;;;;;9.43;6.90;;;;;;;0.78;100.00;100874.16;6159125;28;20238;-74
2023/12/02 04:19:51;;;;;;;8.63;7.67;;;;;;;0.68;100.00;100875.56;6141173;28;20242;-73
2023/12/02 04:23:14;;;;;;;8.27;7.10;;;;;;;0.63;100.00;100875.78;6160847;28;20246;-74
2023/12/02 04:26:34;;;;;;;8.13;7.33;;;;;;;0.55;100.00;100879.72;6156612;28;20242;-73
2023/12/02 04:29:55;;;;;;;9.40;8.43;;;;;;;0.62;100.00;100870.56;6151351;28;20604;-73
2023/12/02 04:33:16;;;;;;;7.40;6.67;;;;;;;0.71;100.00;100875.38;6151376;28;20318;-73
2023/12/02 04:36:39;;;;;;;9.90;7.80;;;;;;;0.74;100.00;100872.59;6159179;28;20235;-73
2023/12/02 04:40:00;;;;;;;8.17;6.63;;;;;;;0.68;100.00;100883.50;6146423;28;20894;-74
2023/12/02 04:43:21;;;;;;;10.90;7.10;;;;;;;0.62;100.00;100884.69;6163734;28;20671;-74
2023/12/02 04:46:42;;;;;;;7.87;7.07;;;;;;;0.69;100.00;100888.72;6160143;28;20786;-73
2023/12/02 04:50:04;;;;;;;7.63;6.93;;;;;;;0.75;100.00;100891.09;6158731;28;20237;-74
2023/12/02 04:53:26;;;;;;;14.63;9.00;;;;;;;0.75;100.00;100898.22;6160816;28;20227;-74
2023/12/02 04:56:47;;;;;;;9.07;7.87;;;;;;;0.78;100.00;100898.91;6156438;28;20242;-73
2023/12/02 05:00:13;;;;;;;8.17;7.33;;;;;;;0.71;100.00;100902.78;6160261;28;20242;-74
2023/12/02 05:03:34;;;;;;;9.50;6.77;;;;;;;0.80;100.00;100896.19;6150029;28;20230;-73
2023/12/02 05:10:44;;;;;;;9.00;8.00;;;;;;;0.94;100.00;100898.19;6097191;28;20224;-73
2023/12/02 05:14:06;;;;;;;9.60;8.60;;;;;;;0.91;100.00;100900.97;6086745;28;20232;-73
2023/12/02 05:17:27;;;;;;;14.90;9.90;;;;;;;0.92;100.00;100892.91;6074952;28;20243;-73
2023/12/02 05:20:48;;;;;;;9.00;7.17;;;;;;;0.95;100.00;100892.78;6098988;28;20699;-73
2023/12/02 05:24:09;;;;;;;7.43;6.73;;;;;;;0.85;100.00;100904.78;6105859;28;20248;-73
2023/12/02 05:27:31;;;;;;;10.80;7.30;;;;;;;0.72;100.00;100893.03;6104320;28;20630;-73
2023/12/02 05:30:53;;;;;;;9.67;8.60;;;;;;;0.77;100.00;100910.44;6105664;28;20243;-73
2023/12/02 05:34:14;;;;;;;9.47;7.83;;;;;;;0.80;100.00;100910.31;6104166;28;20807;-73
2023/12/02 05:37:36;;;;;;;8.07;6.47;;;;;;;0.86;100.00;100909.16;6105436;28;20236;-74
2023/12/02 05:40:57;;;;;;;8.40;6.77;;;;;;;0.92;100.00;100903.53;6076803;28;20244;-73
2023/12/02 05:44:19;;;;;;;9.17;7.63;;;;;;;0.86;100.00;100902.97;6104293;28;20324;-73
2023/12/02 05:47:40;;;;;;;8.57;6.63;;;;;;;0.80;100.00;100898.84;6093198;28;20622;-73
2023/12/02 05:51:03;;;;;;;8.83;7.20;;;;;;;0.89;100.00;100898.41;6101722;28;20240;-74
2023/12/02 05:54:23;;;;;;;11.63;8.67;;;;;;;0.97;100.00;100906.84;6096287;28;20611;-74
2023/12/02 05:57:44;;;;;;;10.10;8.10;;;;;;;0.88;100.00;100904.63;6115520;28;20237;-73
2023/12/02 06:01:08;;;;;;;9.77;8.80;;;;;;;0.97;100.00;100908.63;6102050;28;20711;-74
2023/12/02 06:04:31;;;;;;;14.40;11.20;;;;;;;1.05;100.00;100902.00;6103571;28;20236;-74
2023/12/02 06:07:52;;;;;;;10.00;8.93;;;;;;;1.15;100.00;100902.44;6104067;28;20267;-72
2023/12/02 06:11:13;;;;;;;9.33;8.27;;;;;;;1.10;100.00;100907.09;6089629;28;20259;-73
2023/12/02 06:14:34;;;;;;;10.10;9.10;;;;;;;1.08;100.00;100911.63;6103238;28;20228;-73
2023/12/02 06:17:57;;;;;;;12.60;8.77;;;;;;;1.15;100.00;100907.75;6098128;28;20240;-73
2023/12/02 06:21:18;;;;;;;9.67;8.50;;;;;;;1.01;100.00;100920.81;6103729;28;20240;-73
2023/12/02 06:24:39;;;;;;;11.37;10.27;;;;;;;0.96;100.00;100926.31;6104536;28;20236;-74
2023/12/02 06:28:00;;;;;;;10.47;7.40;;;;;;;0.98;100.00;100927.13;6100943;28;20240;-74
2023/12/02 06:31:21;;;;;;;10.27;8.50;;;;;;;0.91;100.00;100931.03;6101973;28;20233;-74
2023/12/02 06:34:43;;;;;;;16.10;11.43;;;;;;;0.95;100.00;100932.59;6101017;28;20370;-73
2023/12/02 06:38:06;;;;;;;13.33;8.63;;;;;;;0.81;100.00;100933.22;6104392;28;20618;-74
2023/12/02 06:41:27;;;;;;;7.97;7.03;;;;;;;0.79;100.00;100931.63;6102353;28;20240;-73
2023/12/02 06:44:48;;;;;;;10.60;8.43;;;;;;;0.86;100.00;100940.97;6102919;28;20286;-73
2023/12/02 06:48:09;;;;;;;11.30;8.63;;;;;;;0.93;100.00;100939.75;6101395;28;20225;-73
2023/12/02 06:51:31;;;;;;;13.03;10.73;;;;;;;0.89;100.00;100946.16;6104886;28;20785;-73
2023/12/02 06:54:52;;;;;;;10.93;9.73;;;;;;;0.86;100.00;100948.06;6109603;28;20239;-73
2023/12/02 06:58:13;;;;;;;11.50;8.90;;;;;;;0.80;100.00;100949.22;6102701;28;20856;-73
2023/12/02 07:01:35;;;;;;;12.43;9.00;;;;;;;1.04;100.00;100953.38;6100475;28;20665;-74
2023/12/02 07:04:55;;;;;;;10.90;8.57;;;;;;;1.13;100.00;100958.22;6101387;28;20733;-72
2023/12/02 07:08:18;;;;;;;10.97;9.10;;;;;;;1.17;100.00;100964.25;6101469;28;20532;-73
2023/12/02 07:11:39;;;;;;;8.67;7.27;;;;;;;1.17;100.00;100967.75;6099007;28;20741;-73
2023/12/02 07:15:00;;;;;;;11.73;7.23;;;;;;;1.30;100.00;100974.19;6101833;28;20298;-73
2023/12/02 07:18:21;;;;;;;12.63;8.90;;;;;;;1.28;100.00;100980.50;6100244;28;20235;-73
2023/12/02 07:21:42;;;;;;;10.47;8.43;;;;;;;1.01;100.00;100982.72;6089253;28;20247;-72
2023/12/02 07:25:05;;;;;;;11.47;9.27;;;;;;;1.27;100.00;100990.25;6099740;28;20502;-74
2023/12/02 07:28:27;;;;;;;9.67;8.40;;;;;;;1.37;100.00;100998.66;6097581;28;20318;-74
2023/12/02 07:31:48;;;;;;;14.30;8.70;;;;;;;1.28;100.00;101001.75;6097022;28;20953;-74
2023/12/02 07:35:09;;;;;;;9.60;7.63;;;;;;;1.28;100.00;100993.78;6110207;28;20516;-73
2023/12/02 07:38:30;;;;;;;12.47;8.43;;;;;;;1.27;100.00;100994.72;6082106;28;20235;-73
2023/12/02 07:41:52;;;;;;;12.90;9.83;;;;;;;1.21;100.00;101003.00;6089975;28;20623;-73
2023/12/02 07:45:13;;;;;;;12.43;9.37;;;;;;;1.22;100.00;101005.56;6102046;28;22045;-74
2023/12/02 07:48:34;;;;;;;13.60;11.20;;;;;;;1.22;100.00;101005.56;6100763;28;20520;-74
2023/12/02 07:51:55;;;;;;;14.17;9.57;;;;;;;1.25;100.00;101000.09;6072038;28;20235;-72
2023/12/02 07:55:16;;;;;;;11.47;8.77;;;;;;;1.17;100.00;101004.09;6106841;28;20236;-74
2023/12/02 07:58:38;;;;;;;13.40;12.00;;;;;;;1.07;100.00;101010.75;6103841;28;20310;-73
2023/12/02 08:01:59;;;;;;;8.67;6.80;;;;;;;1.23;100.00;101012.59;6103451;28;20237;-73
2023/12/02 08:05:20;;;;;;;10.23;8.77;;;;;;;1.26;100.00;101015.09;6105828;28;20240;-73
2023/12/02 08:08:41;;;;;;;12.33;10.50;;;;;;;1.27;100.00;101018.63;6102314;28;20330;-74
2023/12/02 08:12:02;;;;;;;12.20;9.07;;;;;;;1.25;100.00;101025.81;6100633;28;20243;-72
2023/12/02 08:15:25;;;;;;;13.13;11.73;;;;;;;1.24;100.00;101026.72;6104592;28;20627;-74
2023/12/02 08:18:46;;;;;;;12.60;9.80;;;;;;;1.24;100.00;101032.91;6105972;28;20367;-73
2023/12/02 08:22:07;;;;;;;14.57;9.87;;;;;;;1.29;100.00;101038.88;6105239;28;20252;-73
2023/12/02 08:25:28;;;;;;;10.37;8.27;;;;;;;1.38;100.00;101041.06;6102199;28;20646;-74
2023/12/02 08:28:49;;;;;;;11.30;9.60;;;;;;;1.41;100.00;101043.56;6088443;28;20232;-74
2023/12/02 08:32:12;;;;;;;12.60;10.03;;;;;;;1.43;100.00;101046.16;6103330;28;21078;-74
2023/12/02 08:35:33;;;;;;;10.63;8.43;;;;;;;1.50;100.00;101052.91;6101915;28;20239;-74
2023/12/02 08:38:53;;;;;;;12.13;8.87;;;;;;;1.41;100.00;101055.97;6105396;28;20622;-74
2023/12/02 08:42:16;;;;;;;10.53;9.13;;;;;;;1.49;100.00;101062.66;6104580;28;20235;-73
2023/12/02 08:45:36;;;;;;;11.17;10.07;;;;;;;1.38;100.00;101061.44;6102715;28;20239;-73
2023/12/02 08:48:59;;;;;;;11.00;9.37;;;;;;;1.48;100.00;101068.88;6077418;28;20225;-72
2023/12/02 08:52:20;;;;;;;10.97;8.43;;;;;;;1.45;100.00;101071.69;6102999;28;20240;-73
2023/12/02 08:55:43;;;;;;;10.90;8.37;;;;;;;1.43;100.00;101070.91;6106153;28;20262;-73
2023/12/02 08:59:04;;;;;;;13.87;12.50;;;;;;;1.41;100.00;101072.78;6103560;28;20550;-73
2023/12/02 09:02:25;;;;;;;10.03;8.13;;;;;;;1.39;100.00;101076.44;6106308;28;21283;-73
2023/12/02 09:05:47;;;;;;;11.10;9.50;;;;;;;1.36;100.00;101074.78;6094069;28;20273;-73
2023/12/02 09:09:08;;;;;;;11.93;9.43;;;;;;;1.38;100.00;101086.19;6100834;28;20551;-73
2023/12/02 09:12:30;;;;;;;11.73;10.53;;;;;;;1.37;100.00;101094.25;6103826;28;20240;-73
2023/12/02 09:15:52;;;;;;;9.70;8.03;;;;;;;1.41;100.00;101093.16;6105724;28;20236;-73
2023/12/02 09:19:53;;;;;;;16.07;12.43;;;;;;;1.46;100.00;101088.50;6103042;28;20232;-73
2023/12/02 09:23:17;;;;;;;9.87;8.23;;;;;;;1.49;100.00;101091.00;6109118;28;20243;-73
2023/12/02 09:26:43;;;;;;;9.67;8.53;;;;;;;1.47;100.00;101095.53;6104196;28;20634;-73
2023/12/02 09:30:07;;;;;;;15.33;11.40;;;;;;;1.44;100.00;101096.53;6103666;28;20243;-74
2023/12/02 09:33:29;;;;;;;22.90;18.80;;;;;;;1.44;100.00;101101.84;6099959;28;20669;-74
2023/12/02 09:36:54;;;;;;;18.80;12.90;;;;;;;1.48;100.00;101105.22;6101507;28;20239;-73
2023/12/02 09:41:04;;;;;;;13.27;10.57;;;;;;;1.37;100.00;101104.88;6103337;28;20235;-74
2023/12/02 09:44:30;;;;;;;14.00;10.10;;;;;;;1.43;100.00;101105.44;6114771;28;20235;-73
2023/12/02 09:47:58;;;;;;;9.93;7.80;;;;;;;1.36;100.00;101108.44;6110029;28;20247;-73
2023/12/02 09:51:30;;;;;;;9.40;8.37;;;;;;;1.36;100.00;101101.34;6102677;28;20240;-73
2023/12/02 09:54:57;;;;;;;11.40;10.30;;;;;;;1.34;100.00;101100.56;6104835;28;20626;-74
2023/12/02 09:58:24;;;;;;;8.83;7.97;;;;;;;1.45;100.00;101094.72;6114271;28;20800;-74
2023/12/02 10:01:52;;;;;;;9.43;8.43;;;;;;;1.29;100.00;101099.06;6106320;28;20628;-72
2023/12/02 10:05:15;;;;;;;10.90;9.17;;;;;;;1.23;100.00;101102.84;6091989;28;21277;-74
2023/12/02 10:08:48;;;;;;;11.37;10.10;;;;;;;1.25;100.00;101105.44;6101659;28;20248;-73
2023/12/02 10:12:30;;;;;;;10.07;9.07;;;;;;;1.32;100.00;101105.06;6104766;28;20236;-73
2023/12/02 10:15:58;;;;;;;8.80;7.93;;;;;;;1.64;100.00;101106.19;6086873;28;20235;-74
2023/12/02 10:19:31;;;;;;;10.33;8.77;;;;;;;1.63;100.00;101103.63;6103872;28;20285;-75
2023/12/02 10:22:58;;;;;;;11.10;8.00;;;;;;;1.80;100.00;101098.31;6101521;28;21191;-74
2023/12/02 10:26:24;;;;;;;9.07;7.43;;;;;;;1.83;100.00;101103.50;6102954;28;20244;-74
2023/12/02 10:29:56;;;;;;;9.57;8.60;;;;;;;1.80;100.00;101101.84;6103118;28;20236;-74
2023/12/02 10:33:28;;;;;;;15.90;12.33;;;;;;;1.72;100.00;101100.50;6103213;28;20235;-73
2023/12/02 10:36:52;;;;;;;11.47;9.67;;;;;;;1.73;100.00;101103.09;6085449;28;20231;-75
2023/12/02 10:40:15;;;;;;;9.20;8.40;;;;;;;1.94;100.00;101099.38;6097680;28;20326;-74
2023/12/02 10:43:39;;;;;;;8.50;7.60;;;;;;;2.01;100.00;101095.47;6102511;28;20323;-75
2023/12/02 10:47:01;;;;;;;9.47;7.37;;;;;;;2.01;100.00;101102.59;6114750;28;20293;-75
2023/12/02 10:50:25;;;;;;;9.57;8.53;;;;;;;2.09;100.00;101101.25;6100958;28;20244;-73
2023/12/02 10:53:47;;;;;;;10.73;9.50;;;;;;;1.92;100.00;101103.91;6104414;28;20284;-74
2023/12/02 10:57:10;;;;;;;9.90;8.00;;;;;;;2.04;100.00;101103.31;6103992;28;20268;-74
2023/12/02 11:00:34;;;;;;;11.17;8.83;;;;;;;2.02;100.00;101101.66;6101672;28;20236;-74
2023/12/02 11:04:02;;;;;;;10.43;8.20;;;;;;;2.19;100.00;101096.34;6101822;28;20263;-74
2023/12/02 11:07:28;;;;;;;10.80;9.00;;;;;;;2.43;100.00;101100.41;6103694;28;20247;-75
2023/12/02 11:10:54;;;;;;;11.00;7.60;;;;;;;2.68;100.00;101090.19;6101677;28;20239;-75
2023/12/02 11:14:17;;;;;;;10.70;8.70;;;;;;;2.76;100.00;101097.75;6100436;28;20236;-73
2023/12/02 11:17:41;;;;;;;9.37;8.40;;;;;;;2.77;100.00;101099.50;6102435;28;20235;-73
2023/12/02 11:21:05;;;;;;;7.70;6.47;;;;;;;2.79;100.00;101100.28;6101938;28;20236;-74
2023/12/02 11:24:37;;;;;;;9.10;7.57;;;;;;;2.57;100.00;101100.53;6103070;28;20240;-74
2023/12/02 11:28:04;;;;;;;8.33;6.33;;;;;;;2.51;100.00;101092.88;6099734;28;20240;-73
2023/12/02 11:31:40;;;;;;;7.30;6.60;;;;;;;2.57;100.00;101100.53;6103210;28;20240;-74
2023/12/02 11:35:11;;;;;;;10.40;7.27;;;;;;;2.55;100.00;101099.75;6082942;28;20787;-74
2023/12/02 11:38:33;;;;;;;8.67;7.77;;;;;;;2.64;100.00;101109.06;6101356;28;20617;-73
2023/12/02 11:41:57;;;;;;;8.97;6.77;;;;;;;2.73;100.00;101097.94;6100746;28;20231;-73
2023/12/02 11:45:25;;;;;;;7.17;6.40;;;;;;;3.28;100.00;101104.66;6100559;28;20267;-74
2023/12/02 11:48:58;;;;;;;6.87;6.10;;;;;;;3.31;100.00;101107.16;6085931;28;20569;-74
2023/12/02 11:52:28;;;;;;;6.13;5.00;;;;;;;3.27;100.00;101108.28;6115246;28;20243;-75
2023/12/02 11:55:57;;;;;;;7.63;5.60;;;;;;;3.30;100.00;101107.25;6104200;28;20262;-74
2023/12/02 11:59:22;;;;;;;4.97;4.57;;;;;;;3.45;100.00;101107.25;6100917;28;20232;-73
2023/12/02 12:03:04;;;;;;;4.77;4.33;;;;;;;3.49;100.00;101110.59;6101758;28;20240;-75
2023/12/02 12:06:44;;;;;;;6.43;4.63;;;;;;;3.49;100.00;101105.25;6097443;28;20322;-73
2023/12/02 12:10:08;;;;;;;3.70;3.27;;;;;;;3.09;100.00;101107.47;6100055;28;20244;-75
2023/12/02 12:13:31;;;;;;;4.90;4.27;;;;;;;2.98;100.00;101109.84;6098779;28;20513;-73
2023/12/02 12:16:53;;;;;;;3.50;3.20;;;;;;;2.80;100.00;101105.50;6097034;28;20228;-75
2023/12/02 12:20:18;;;;;;;4.63;4.23;;;;;;;3.01;100.00;101108.81;6097342;28;20322;-73
2023/12/02 12:23:39;;;;;;;4.37;3.97;;;;;;;3.25;100.00;101113.66;6086715;28;20268;-74
2023/12/02 12:27:01;;;;;;;4.30;3.97;;;;;;;3.12;100.00;101109.13;6093319;28;20934;-74
2023/12/02 12:30:22;;;;;;;4.57;4.00;;;;;;;3.33;100.00;101112.41;6101165;28;20252;-74
2023/12/02 12:33:44;;;;;;;4.07;3.67;;;;;;;3.43;100.00;101113.59;6098226;28;20236;-74
2023/12/02 12:37:05;;;;;;;3.07;2.77;;;;;;;3.15;100.00;101112.47;6098982;28;20263;-75
2023/12/02 12:40:27;;;;;;;4.13;3.70;;;;;;;3.48;100.00;101112.44;6100366;28;20244;-73
2023/12/02 12:43:48;;;;;;;3.83;2.70;;;;;;;3.64;100.00;101115.94;6101917;28;20244;-74
2023/12/02 12:47:09;;;;;;;4.30;3.40;;;;;;;3.66;100.00;101118.50;6102767;28;20235;-74
2023/12/02 12:50:32;;;;;;;3.87;3.57;;;;;;;3.80;100.00;101116.78;6105391;28;21553;-74
2023/12/02 12:53:59;;;;;;;3.67;3.37;;;;;;;3.92;100.00;101118.75;6106490;28;20233;-75
2023/12/02 12:57:30;;;;;;;8.07;4.47;;;;;;;3.69;100.00;101119.19;6104198;28;20620;-75
2023/12/02 13:00:51;;;;;;;3.80;3.40;;;;;;;3.44;100.00;101134.00;6097703;28;20556;-74
2023/12/02 13:04:25;;;;;;;3.60;3.30;;;;;;;3.19;100.00;101132.66;6106048;28;20247;-75
2023/12/02 13:07:51;;;;;;;4.70;4.00;;;;;;;2.96;100.00;101126.88;6104010;28;20247;-75
2023/12/02 13:11:20;;;;;;;4.33;3.90;;;;;;;2.76;100.00;101135.03;6104995;28;20642;-75
2023/12/02 13:14:47;;;;;;;3.73;3.37;;;;;;;2.65;100.00;101137.41;6101633;28;20236;-75
2023/12/02 13:18:11;;;;;;;2.87;2.57;;;;;;;2.70;100.00;101144.22;6095328;28;20590;-74
2023/12/02 13:21:32;;;;;;;3.70;3.20;;;;;;;2.74;100.00;101140.44;6115747;28;20244;-74
2023/12/02 13:25:00;;;;;;;4.10;3.73;;;;;;;2.70;100.00;101146.88;6103559;28;21077;-74
2023/12/02 13:28:25;;;;;;;3.47;3.17;;;;;;;2.68;100.00;101145.22;6104643;28;20239;-74
2023/12/02 13:31:47;;;;;;;4.13;3.73;;;;;;;2.44;100.00;101148.19;6102908;28;20240;-74
2023/12/02 13:35:12;;;;;;;4.03;3.73;;;;;;;2.58;100.00;101154.63;6090129;28;20232;-73
2023/12/02 13:38:35;;;;;;;5.57;4.97;;;;;;;2.67;100.00;101151.50;6103063;28;20259;-73
2023/12/02 13:42:05;;;;;;;3.33;3.03;;;;;;;2.80;100.00;101152.56;6101009;28;20236;-74
2023/12/02 13:45:27;;;;;;;5.10;2.47;;;;;;;2.97;100.00;101158.72;6102276;28;20255;-74
2023/12/02 13:49:01;;;;;;;3.97;3.57;;;;;;;3.09;100.00;101170.50;6103029;28;20290;-74
2023/12/02 13:52:41;;;;;;;3.83;3.53;;;;;;;2.82;100.00;101169.31;6104831;28;20251;-74
2023/12/02 13:56:19;;;;;;;3.50;2.83;;;;;;;2.80;100.00;101165.88;6104599;28;20236;-73
2023/12/02 13:59:46;;;;;;;3.40;2.87;;;;;;;2.69;100.00;101170.91;6103798;28;20320;-74
2023/12/02 14:03:23;;;;;;;3.13;2.93;;;;;;;2.67;100.00;101178.94;6102839;28;20331;-74
2023/12/02 14:06:52;;;;;;;2.80;2.43;;;;;;;2.55;100.00;101173.38;6103766;28;20240;-73
2023/12/02 14:10:17;;;;;;;3.10;2.43;;;;;;;2.43;100.00;101188.19;6104915;28;20239;-74
2023/12/02 14:13:46;;;;;;;2.20;2.00;;;;;;;2.39;100.00;101192.81;6100504;28;20231;-73
2023/12/02 14:17:37;;;;;;;3.27;2.97;;;;;;;2.22;100.00;101198.09;6103449;28;20292;-74
2023/12/02 14:21:13;;;;;;;3.43;2.77;;;;;;;2.36;100.00;101197.41;6100476;28;20239;-74
2023/12/02 14:24:59;;;;;;;2.47;2.33;;;;;;;2.32;100.00;101204.69;6101092;28;20326;-75
2023/12/02 14:28:35;;;;;;;3.80;3.47;;;;;;;2.31;100.00;101212.75;6100460;28;20326;-74
2023/12/02 14:32:13;;;;;;;4.90;3.27;;;;;;;2.23;100.00;101214.94;6100183;28;20239;-74
2023/12/02 14:35:54;;;;;;;4.97;3.17;;;;;;;2.10;100.00;101206.69;6100842;28;20232;-74
2023/12/02 14:39:36;;;;;;;3.97;3.63;;;;;;;2.04;100.00;101212.31;6098930;28;20578;-75
2023/12/02 14:43:13;;;;;;;5.30;4.80;;;;;;;1.99;100.00;101226.72;6098180;28;20267;-74
2023/12/02 14:46:34;;;;;;;3.07;2.53;;;;;;;1.96;100.00;101229.56;6100102;28;20240;-74
2023/12/02 14:49:56;;;;;;;37.83;33.37;;;;;;;1.95;100.00;101236.66;6101407;28;20547;-74
2023/12/02 14:53:19;;;;;;;15.97;13.90;;;;;;;1.95;100.00;101251.75;6101109;28;20240;-75
2023/12/02 14:56:43;;;;;;;7.43;6.70;;;;;;;1.76;100.00;101246.44;6102637;28;21278;-73
2023/12/02 15:00:10;;;;;;;3.60;3.27;;;;;;;1.80;100.00;101253.31;6104201;28;20231;-75
2023/12/02 15:03:34;;;;;;;6.27;5.07;;;;;;;1.83;100.00;101266.47;6094091;28;20259;-75
2023/12/02 15:06:55;;;;;;;3.00;2.47;;;;;;;1.86;100.00;101270.75;6101769;28;20223;-74
2023/12/02 15:10:18;;;;;;;3.10;2.80;;;;;;;1.83;100.00;101281.56;6100944;28;20262;-74
2023/12/02 15:13:40;;;;;;;3.07;2.77;;;;;;;1.82;100.00;101277.16;6101640;28;20258;-74
2023/12/02 15:17:01;;;;;;;4.70;4.30;;;;;;;1.76;100.00;101290.72;6100660;28;20240;-74
2023/12/02 15:20:23;;;;;;;4.37;3.97;;;;;;;1.67;100.00;101294.66;6094633;28;20228;-74
2023/12/02 15:23:44;;;;;;;4.73;4.03;;;;;;;1.59;100.00;101302.13;6099777;28;20243;-74
2023/12/02 15:27:07;;;;;;;5.07;4.10;;;;;;;1.58;100.00;101311.91;6113761;28;20549;-74
2023/12/02 15:30:28;;;;;;;3.47;3.17;;;;;;;1.60;100.00;101315.38;6065230;28;20232;-75
2023/12/02 15:33:51;;;;;;;4.83;4.20;;;;;;;1.46;100.00;101320.41;6099712;28;20251;-75
2023/12/02 15:37:13;;;;;;;6.77;4.50;;;;;;;1.53;100.00;101331.63;6099341;28;21083;-74
2023/12/02 15:40:34;;;;;;;5.03;4.53;;;;;;;1.45;100.00;101337.28;6096616;28;20860;-77
2023/12/02 15:43:58;;;;;;;4.07;3.27;;;;;;;1.47;100.00;101343.41;6099066;28;20240;-76
2023/12/02 15:47:19;;;;;;;5.10;4.60;;;;;;;1.54;100.00;101342.19;6100401;28;21363;-74